createdAt,value
2018-06-20T00:01:11.384Z,2.40
2018-06-20T00:03:39.651Z,2.60
2018-06-20T00:06:07.891Z,2.40
2018-06-20T00:08:40.311Z,2.60
2018-06-20T00:11:08.316Z,2.72
2018-06-20T00:13:36.520Z,2.62
2018-06-20T00:16:04.804Z,2.42
2018-06-20T00:18:33.007Z,2.42
2018-06-20T00:21:01.203Z,2.70
2018-06-20T00:23:29.447Z,2.52
2018-06-20T00:25:57.654Z,2.85
2018-06-20T00:28:25.863Z,2.42
2018-06-20T00:30:54.066Z,2.60
2018-06-20T00:33:22.274Z,2.62
2018-06-20T00:35:50.470Z,2.90
2018-06-20T00:38:18.780Z,2.70
2018-06-20T00:40:46.955Z,2.70
2018-06-20T00:43:14.918Z,2.50
2018-06-20T00:45:43.115Z,2.20
2018-06-20T00:48:11.094Z,2.80
2018-06-20T00:50:39.039Z,2.70
2018-06-20T00:53:07.276Z,2.65
2018-06-20T00:55:46.868Z,2.60
2018-06-20T00:58:15.072Z,2.58
2018-06-20T01:00:43.007Z,2.67
2018-06-20T01:03:11.220Z,2.60
2018-06-20T01:05:39.423Z,2.62
2018-06-20T01:08:07.631Z,2.77
2018-06-20T01:10:35.835Z,2.87
2018-06-20T01:13:04.046Z,2.75
2018-06-20T01:15:32.256Z,2.70
2018-06-20T01:18:00.455Z,2.72
2018-06-20T01:20:28.668Z,2.95
2018-06-20T01:22:56.870Z,2.80
2018-06-20T01:25:25.091Z,2.80
2018-06-20T01:27:53.317Z,2.67
2018-06-20T01:30:21.276Z,2.87
2018-06-20T01:32:49.463Z,2.80
2018-06-20T01:35:17.410Z,2.80
2018-06-20T01:37:45.636Z,3.00
2018-06-20T01:40:13.717Z,2.62
2018-06-20T01:42:41.961Z,2.42
2018-06-20T01:45:10.186Z,3.25
2018-06-20T01:47:38.370Z,2.75
2018-06-20T01:50:06.612Z,2.87
2018-06-20T01:52:34.819Z,2.67
2018-06-20T01:55:03.024Z,2.75
2018-06-20T01:57:31.231Z,2.80
2018-06-20T01:59:59.415Z,3.00
2018-06-20T02:02:27.617Z,2.67
2018-06-20T02:04:55.566Z,2.98
2018-06-20T02:07:23.775Z,2.70
2018-06-20T02:09:52.044Z,3.10
2018-06-20T02:12:20.064Z,2.80
2018-06-20T02:14:48.261Z,2.80
2018-06-20T02:17:16.471Z,3.08
2018-06-20T02:19:44.693Z,2.58
2018-06-20T02:22:12.899Z,3.25
2018-06-20T02:24:41.188Z,3.33
2018-06-20T02:27:09.392Z,3.00
2018-06-20T02:29:37.588Z,2.92
2018-06-20T02:32:05.779Z,3.00
2018-06-20T02:34:33.983Z,3.12
2018-06-20T02:37:02.165Z,2.80
2018-06-20T02:39:30.383Z,3.20
2018-06-20T02:41:58.727Z,3.33
2018-06-20T02:44:26.928Z,2.90
2018-06-20T02:46:55.116Z,3.22
2018-06-20T02:49:23.325Z,3.33
2018-06-20T02:51:51.567Z,3.60
2018-06-20T02:54:19.892Z,3.47
2018-06-20T02:56:47.887Z,3.50
2018-06-20T02:59:16.099Z,3.27
2018-06-20T03:01:44.375Z,3.10
2018-06-20T03:04:12.649Z,3.33
2018-06-20T03:06:40.907Z,2.98
2018-06-20T03:09:14.643Z,3.50
2018-06-20T03:11:43.686Z,3.12
2018-06-20T03:14:11.887Z,3.30
2018-06-20T03:16:40.111Z,3.02
2018-06-20T03:19:08.295Z,3.25
2018-06-20T03:21:36.554Z,3.33
2018-06-20T03:24:04.735Z,3.25
2018-06-20T03:26:33.072Z,3.45
2018-06-20T03:29:01.032Z,3.50
2018-06-20T03:31:29.611Z,3.47
2018-06-20T03:33:57.926Z,3.30
2018-06-20T03:36:26.507Z,3.17
2018-06-20T03:38:54.466Z,3.58
2018-06-20T03:41:22.668Z,3.52
2018-06-20T03:43:51.207Z,3.40
2018-06-20T03:46:19.512Z,3.27
2018-06-20T03:48:47.910Z,3.27
2018-06-20T03:51:15.873Z,3.45
2018-06-20T03:53:43.862Z,3.42
2018-06-20T03:56:11.810Z,3.85
2018-06-20T03:58:40.032Z,3.40
2018-06-20T04:01:08.238Z,3.83
2018-06-20T04:03:36.431Z,3.75
2018-06-20T04:06:04.644Z,3.55
2018-06-20T04:08:32.863Z,4.30
2018-06-20T04:11:01.063Z,3.47
2018-06-20T04:13:29.395Z,3.75
2018-06-20T04:15:57.623Z,3.90
2018-06-20T04:18:35.262Z,3.80
2018-06-20T04:21:03.270Z,3.70
2018-06-20T04:23:31.482Z,4.17
2018-06-20T04:25:59.679Z,4.20
2018-06-20T04:28:27.943Z,3.98
2018-06-20T04:30:56.145Z,4.33
2018-06-20T04:33:24.150Z,3.90
2018-06-20T04:35:52.402Z,4.17
2018-06-20T04:38:20.588Z,3.85
2018-06-20T04:40:48.814Z,4.17
2018-06-20T04:43:17.027Z,4.35
2018-06-20T04:45:46.131Z,4.50
2018-06-20T04:48:14.365Z,4.10
2018-06-20T04:50:42.570Z,4.15
2018-06-20T04:53:10.825Z,4.00
2018-06-20T04:55:39.079Z,3.87
2018-06-20T04:58:07.367Z,4.00
2018-06-20T05:00:35.567Z,4.00
2018-06-20T05:03:03.828Z,3.85
2018-06-20T05:05:32.101Z,3.83
2018-06-20T05:08:00.103Z,3.87
2018-06-20T05:10:28.322Z,3.98
2018-06-20T05:12:56.562Z,4.00
2018-06-20T05:15:24.922Z,3.92
2018-06-20T05:17:53.153Z,4.30
2018-06-20T05:20:21.352Z,4.25
2018-06-20T05:22:49.548Z,3.72
2018-06-20T05:25:17.507Z,3.98
2018-06-20T05:27:45.729Z,3.60
2018-06-20T05:30:13.902Z,4.00
2018-06-20T05:32:42.117Z,3.52
2018-06-20T05:35:10.351Z,3.98
2018-06-20T05:37:38.342Z,4.28
2018-06-20T05:40:06.714Z,3.90
2018-06-20T05:42:34.671Z,4.42
2018-06-20T05:45:02.886Z,4.50
2018-06-20T05:47:31.178Z,4.83
2018-06-20T05:49:59.372Z,4.67
2018-06-20T05:52:27.580Z,4.30
2018-06-20T05:54:55.787Z,4.62
2018-06-20T05:57:23.976Z,4.45
2018-06-20T05:59:52.191Z,5.20
2018-06-20T06:02:20.402Z,4.75
2018-06-20T06:04:48.620Z,5.40
2018-06-20T06:07:16.835Z,5.58
2018-06-20T06:09:45.042Z,4.90
2018-06-20T06:12:13.239Z,4.40
2018-06-20T06:14:41.187Z,4.20
2018-06-20T06:17:09.455Z,4.83
2018-06-20T06:19:37.625Z,4.25
2018-06-20T06:22:05.855Z,4.58
2018-06-20T06:24:34.039Z,4.60
2018-06-20T06:27:02.048Z,4.50
2018-06-20T06:29:30.251Z,4.35
2018-06-20T06:31:58.468Z,4.42
2018-06-20T06:34:26.672Z,4.53
2018-06-20T06:36:54.953Z,4.60
2018-06-20T06:39:23.135Z,3.85
2018-06-20T06:41:51.403Z,4.28
2018-06-20T06:44:19.619Z,3.70
2018-06-20T06:46:47.831Z,4.22
2018-06-20T06:49:15.918Z,4.20
2018-06-20T06:51:44.135Z,3.80
2018-06-20T06:54:12.360Z,3.70
2018-06-20T06:56:40.595Z,3.60
2018-06-20T06:59:08.787Z,3.58
2018-06-20T07:01:37.005Z,3.02
2018-06-20T07:04:05.207Z,3.20
2018-06-20T07:06:33.408Z,3.22
2018-06-20T07:09:01.595Z,3.33
2018-06-20T07:11:29.866Z,3.25
2018-06-20T07:13:58.060Z,2.72
2018-06-20T07:16:26.241Z,2.70
2018-06-20T07:18:54.568Z,2.62
2018-06-20T07:21:22.768Z,3.22
2018-06-20T07:23:51.003Z,2.70
2018-06-20T07:26:19.923Z,2.90
2018-06-20T07:28:47.876Z,3.00
2018-06-20T07:31:16.065Z,2.40
2018-06-20T07:33:44.283Z,2.60
2018-06-20T07:36:12.628Z,3.08
2018-06-20T07:38:40.701Z,2.40
2018-06-20T07:41:08.935Z,2.37
2018-06-20T07:43:37.149Z,2.20
2018-06-20T07:46:05.520Z,2.12
2018-06-20T07:48:33.728Z,2.20
2018-06-20T07:51:02.011Z,2.00
2018-06-20T07:53:30.219Z,2.10
2018-06-20T07:55:58.191Z,1.98
2018-06-20T07:58:31.672Z,2.33
2018-06-20T08:01:05.533Z,1.80
2018-06-20T08:03:39.228Z,1.77
2018-06-20T08:07:16.072Z,2.00
2018-06-20T08:09:49.613Z,2.05
2018-06-20T08:12:23.440Z,2.20
2018-06-20T08:14:56.987Z,1.85
2018-06-20T08:17:30.727Z,2.02
2018-06-20T08:20:00.574Z,2.00
2018-06-20T08:22:29.075Z,1.85
2018-06-20T08:25:01.963Z,1.80
2018-06-20T08:27:31.225Z,1.65
2018-06-20T08:30:00.556Z,9.78
2018-06-20T08:32:28.767Z,2.60
2018-06-20T08:34:56.964Z,1.80
2018-06-20T08:37:25.179Z,1.20
2018-06-20T08:39:53.391Z,11.05
2018-06-20T08:42:22.167Z,1.87
2018-06-20T08:44:50.364Z,1.87
2018-06-20T08:47:18.559Z,1.52
2018-06-20T08:49:46.756Z,1.25
2018-06-20T08:52:15.140Z,1.50
2018-06-20T08:54:43.354Z,1.00
2018-06-20T08:57:11.564Z,1.12
2018-06-20T08:59:39.518Z,1.50
2018-06-20T09:02:07.897Z,1.30
2018-06-20T09:04:41.579Z,1.70
2018-06-20T09:07:15.368Z,1.70
2018-06-20T09:09:49.047Z,1.80
2018-06-20T09:12:22.623Z,1.45
2018-06-20T09:14:56.143Z,1.40
2018-06-20T09:17:30.007Z,1.25
2018-06-20T09:19:59.856Z,1.72
2018-06-20T09:22:27.818Z,1.20
2018-06-20T09:24:56.043Z,1.30
2018-06-20T09:27:24.230Z,1.55
2018-06-20T09:29:52.496Z,1.30
2018-06-20T09:32:20.771Z,1.22
2018-06-20T09:34:50.436Z,1.00
2018-06-20T09:37:18.715Z,1.20
2018-06-20T09:39:46.947Z,0.80
2018-06-20T09:42:15.226Z,1.45
2018-06-20T09:44:43.475Z,1.10
2018-06-20T09:47:11.636Z,1.17
2018-06-20T09:49:39.828Z,1.07
2018-06-20T09:52:08.064Z,0.90
2018-06-20T09:54:36.359Z,0.90
2018-06-20T09:57:04.547Z,0.88
2018-06-20T09:59:38.270Z,0.70
2018-06-20T10:02:11.794Z,1.15
2018-06-20T10:04:45.396Z,0.90
2018-06-20T10:08:21.832Z,0.70
2018-06-20T10:10:55.555Z,1.00
2018-06-20T10:13:25.104Z,1.10
2018-06-20T10:15:53.327Z,1.20
2018-06-20T10:18:21.825Z,0.90
2018-06-20T10:20:50.063Z,1.00
2018-06-20T10:23:18.252Z,1.05
2018-06-20T10:25:46.479Z,1.10
2018-06-20T10:28:14.691Z,1.00
2018-06-20T10:30:42.884Z,0.90
2018-06-20T10:33:11.112Z,0.85
2018-06-20T10:35:39.314Z,0.95
2018-06-20T10:38:07.568Z,1.00
2018-06-20T10:40:35.774Z,1.00
2018-06-20T10:43:04.004Z,0.78
2018-06-20T10:45:37.780Z,0.98
2018-06-20T10:48:11.328Z,1.00
2018-06-20T10:50:39.524Z,1.00
2018-06-20T10:53:07.729Z,0.78
2018-06-20T10:55:37.796Z,1.40
2018-06-20T10:58:11.739Z,1.10
2018-06-20T11:00:45.877Z,1.20
2018-06-20T11:03:19.672Z,1.10
2018-06-20T11:06:57.504Z,0.95
2018-06-20T11:09:31.105Z,0.90
2018-06-20T11:12:04.639Z,0.90
2018-06-20T11:14:32.848Z,0.90
2018-06-20T11:17:01.076Z,0.70
2018-06-20T11:19:29.259Z,0.80
2018-06-20T11:21:57.512Z,0.93
2018-06-20T11:24:25.446Z,0.75
2018-06-20T11:26:53.762Z,0.70
2018-06-20T11:29:22.027Z,0.90
2018-06-20T11:31:50.194Z,0.95
2018-06-20T11:34:18.374Z,0.90
2018-06-20T11:36:46.615Z,0.90
2018-06-20T11:39:14.876Z,0.90
2018-06-20T11:41:43.116Z,0.90
2018-06-20T11:44:11.332Z,1.00
2018-06-20T11:46:44.735Z,1.00
2018-06-20T11:49:12.965Z,0.90
2018-06-20T11:51:43.288Z,1.10
2018-06-20T11:54:11.635Z,1.10
2018-06-20T11:56:40.170Z,1.07
2018-06-20T11:59:13.841Z,1.30
2018-06-20T12:01:47.344Z,1.20
2018-06-20T12:04:20.963Z,1.30
2018-06-20T12:06:54.599Z,1.00
2018-06-20T12:09:28.189Z,1.10
2018-06-20T12:12:01.668Z,1.10
2018-06-20T12:14:35.331Z,1.10
2018-06-20T12:17:02.791Z,1.20
2018-06-20T12:19:36.259Z,1.00
2018-06-20T12:22:09.929Z,0.85
2018-06-20T12:24:43.431Z,0.80
2018-06-20T12:27:17.081Z,0.90
2018-06-20T12:29:50.428Z,0.88
2018-06-20T12:32:23.922Z,0.80
2018-06-20T12:34:57.526Z,0.90
2018-06-20T12:37:31.050Z,0.88
2018-06-20T12:40:04.264Z,0.85
2018-06-20T12:42:37.806Z,0.82
2018-06-20T12:45:07.599Z,0.80
2018-06-20T12:47:41.055Z,0.80
2018-06-20T12:50:14.915Z,0.70
2018-06-20T12:52:42.907Z,0.90
2018-06-20T12:55:11.123Z,0.93
2018-06-20T12:57:39.559Z,0.85
2018-06-20T13:00:07.562Z,0.90
2018-06-20T13:02:35.767Z,1.07
2018-06-20T13:05:04.002Z,1.00
2018-06-20T13:07:32.207Z,0.80
2018-06-20T13:10:00.519Z,0.90
2018-06-20T13:12:28.719Z,1.20
2018-06-20T13:14:56.947Z,1.02
2018-06-20T13:17:25.171Z,1.20
2018-06-20T13:19:53.407Z,1.20
2018-06-20T13:22:21.664Z,1.25
2018-06-20T13:24:49.914Z,1.60
2018-06-20T13:27:23.258Z,1.30
2018-06-20T13:29:57.057Z,1.30
2018-06-20T13:32:30.922Z,1.27
2018-06-20T13:35:04.460Z,1.20
2018-06-20T13:37:37.972Z,1.47
2018-06-20T13:40:11.560Z,1.30
2018-06-20T13:42:45.296Z,1.30
2018-06-20T13:45:18.995Z,1.40
2018-06-20T13:47:52.714Z,1.40
2018-06-20T13:50:20.943Z,1.40
2018-06-20T13:52:49.135Z,1.27
2018-06-20T13:55:17.365Z,1.70
2018-06-20T13:57:45.672Z,1.30
2018-06-20T14:00:13.615Z,1.62
2018-06-20T14:02:41.810Z,1.30
2018-06-20T14:05:10.031Z,1.30
2018-06-20T14:07:38.287Z,1.32
2018-06-20T14:10:06.365Z,1.40
2018-06-20T14:12:34.325Z,1.40
2018-06-20T14:15:02.564Z,1.50
2018-06-20T14:17:30.771Z,1.40
2018-06-20T14:20:04.223Z,1.50
2018-06-20T14:22:32.430Z,1.40
2018-06-20T14:25:00.631Z,1.50
2018-06-20T14:27:28.857Z,1.22
2018-06-20T14:29:57.106Z,1.50
2018-06-20T14:32:30.611Z,1.42
2018-06-20T14:35:04.326Z,1.40
2018-06-20T14:37:38.054Z,1.40
2018-06-20T14:40:11.783Z,1.40
2018-06-20T14:42:45.459Z,1.70
2018-06-20T14:46:17.789Z,1.30
2018-06-20T14:48:46.904Z,1.37
2018-06-20T14:51:15.410Z,1.55
2018-06-20T14:53:44.290Z,1.50
2018-06-20T14:56:12.551Z,1.25
2018-06-20T14:58:41.047Z,1.60
2018-06-20T15:01:09.166Z,1.42
2018-06-20T15:03:37.299Z,1.12
2018-06-20T15:06:05.598Z,1.57
2018-06-20T15:08:33.841Z,1.50
2018-06-20T15:11:02.096Z,1.32
2018-06-20T15:13:30.299Z,1.25
2018-06-20T15:17:01.972Z,1.35
2018-06-20T15:19:30.211Z,1.60
2018-06-20T15:21:58.433Z,1.60
2018-06-20T15:24:26.753Z,1.57
2018-06-20T15:27:00.267Z,1.60
2018-06-20T15:29:33.809Z,1.30
2018-06-20T15:32:07.533Z,1.50
2018-06-20T15:34:41.340Z,1.30
2018-06-20T15:37:15.117Z,1.90
2018-06-20T15:39:43.387Z,1.50
2018-06-20T15:42:11.507Z,1.55
2018-06-20T15:44:39.775Z,1.50
2018-06-20T15:47:07.968Z,1.40
2018-06-20T15:49:36.246Z,1.45
2018-06-20T15:52:04.465Z,1.60
2018-06-20T15:54:32.462Z,1.40
2018-06-20T15:57:00.709Z,1.65
2018-06-20T15:59:29.172Z,1.40
2018-06-20T16:01:57.628Z,1.60
2018-06-20T16:04:25.847Z,1.32
2018-06-20T16:06:54.127Z,1.60
2018-06-20T16:09:27.692Z,1.35
2018-06-20T16:11:56.023Z,1.40
2018-06-20T16:14:24.268Z,1.50
2018-06-20T16:16:52.611Z,1.47
2018-06-20T16:19:26.119Z,1.50
2018-06-20T16:21:59.871Z,1.37
2018-06-20T16:24:33.551Z,1.60
2018-06-20T16:27:08.320Z,1.40
2018-06-20T16:29:42.088Z,1.70
2018-06-20T16:32:10.602Z,1.65
2018-06-20T16:34:38.838Z,1.52
2018-06-20T16:37:07.040Z,1.40
2018-06-20T16:39:35.390Z,1.50
2018-06-20T16:42:03.672Z,1.40
2018-06-20T16:44:31.948Z,1.80
2018-06-20T16:47:00.194Z,1.35
2018-06-20T16:49:28.396Z,1.60
2018-06-20T16:51:56.644Z,1.40
2018-06-20T16:54:24.939Z,1.30
2018-06-20T16:56:53.773Z,1.50
2018-06-20T16:59:21.899Z,1.47
2018-06-20T17:01:55.385Z,1.50
2018-06-20T17:04:23.595Z,1.50
2018-06-20T17:06:51.804Z,1.45
2018-06-20T17:09:19.799Z,1.40
2018-06-20T17:11:53.319Z,1.60
2018-06-20T17:14:26.708Z,1.60
2018-06-20T17:17:00.239Z,1.50
2018-06-20T17:19:33.791Z,1.40
2018-06-20T17:22:07.501Z,1.52
2018-06-20T17:24:41.353Z,1.50
2018-06-20T17:27:09.522Z,1.65
2018-06-20T17:29:37.743Z,1.30
2018-06-20T17:32:05.720Z,1.40
2018-06-20T17:34:33.703Z,1.72
2018-06-20T17:37:01.949Z,1.60
2018-06-20T17:39:30.177Z,1.50
2018-06-20T17:41:58.391Z,1.60
2018-06-20T17:44:26.582Z,1.30
2018-06-20T17:46:54.871Z,1.40
2018-06-20T17:49:23.100Z,1.52
2018-06-20T17:51:51.316Z,1.42
2018-06-20T17:54:19.526Z,1.42
2018-06-20T17:56:47.476Z,1.57
2018-06-20T17:59:15.694Z,1.70
2018-06-20T18:01:43.689Z,1.50
2018-06-20T18:04:16.411Z,1.55
2018-06-20T18:06:50.094Z,1.60
2018-06-20T18:09:23.792Z,1.50
2018-06-20T18:11:57.411Z,1.60
2018-06-20T18:14:31.055Z,1.60
2018-06-20T18:16:59.939Z,2.55
2018-06-20T18:19:28.860Z,1.90
2018-06-20T18:21:57.106Z,1.60
2018-06-20T18:24:25.823Z,3.37
2018-06-20T18:26:54.123Z,1.50
2018-06-20T18:29:22.311Z,1.65
2018-06-20T18:31:50.537Z,7.00
2018-06-20T18:34:18.731Z,1.90
2018-06-20T18:36:46.695Z,1.70
2018-06-20T18:39:14.975Z,3.40
2018-06-20T18:41:43.356Z,1.70
2018-06-20T18:44:11.563Z,1.60
2018-06-20T18:46:39.542Z,1.42
2018-06-20T18:49:07.478Z,1.80
2018-06-20T18:51:35.676Z,2.10
2018-06-20T18:54:03.923Z,3.87
2018-06-20T18:56:32.119Z,3.00
2018-06-20T18:59:05.682Z,2.30
2018-06-20T19:01:39.525Z,2.00
2018-06-20T19:04:13.299Z,2.40
2018-06-20T19:06:47.046Z,2.00
2018-06-20T19:09:18.639Z,2.15
2018-06-20T19:11:47.119Z,2.35
2018-06-20T19:14:15.085Z,2.30
2018-06-20T19:16:43.344Z,1.98
2018-06-20T19:19:11.539Z,1.92
2018-06-20T19:21:39.530Z,1.90
2018-06-20T19:24:07.499Z,2.20
2018-06-20T19:26:35.722Z,2.05
2018-06-20T19:29:03.917Z,1.90
2018-06-20T19:31:32.125Z,2.17
2018-06-20T19:34:00.403Z,2.17
2018-06-20T19:36:28.785Z,1.70
2018-06-20T19:38:57.007Z,2.20
2018-06-20T19:41:25.203Z,2.12
2018-06-20T19:43:58.847Z,2.47
2018-06-20T19:46:27.050Z,2.40
2018-06-20T19:48:55.388Z,2.20
2018-06-20T19:51:23.585Z,2.30
2018-06-20T19:53:51.776Z,2.10
2018-06-20T19:56:19.992Z,1.98
2018-06-20T19:58:48.457Z,1.90
2018-06-20T20:01:16.668Z,2.15
2018-06-20T20:03:44.908Z,2.20
2018-06-20T20:06:13.160Z,2.00
2018-06-20T20:08:41.436Z,2.47
2018-06-20T20:11:09.633Z,1.90
2018-06-20T20:13:37.909Z,2.40
2018-06-20T20:16:06.123Z,2.30
2018-06-20T20:18:34.355Z,1.90
2018-06-20T20:21:02.554Z,2.20
2018-06-20T20:23:30.799Z,2.65
2018-06-20T20:25:59.008Z,2.37
2018-06-20T20:28:27.255Z,2.30
2018-06-20T20:30:55.547Z,2.20
2018-06-20T20:33:23.842Z,2.12
2018-06-20T20:35:52.078Z,2.52
2018-06-20T20:38:20.272Z,2.60
2018-06-20T20:40:48.507Z,2.60
2018-06-20T20:43:16.851Z,2.83
2018-06-20T20:45:45.139Z,2.92
2018-06-20T20:48:13.367Z,3.05
2018-06-20T20:50:41.850Z,2.65
2018-06-20T20:53:10.091Z,3.60
2018-06-20T20:55:38.312Z,3.40
2018-06-20T20:58:06.564Z,3.20
2018-06-20T21:00:34.884Z,3.20
2018-06-20T21:03:03.033Z,3.08
2018-06-20T21:05:31.351Z,2.98
2018-06-20T21:07:59.558Z,3.00
2018-06-20T21:10:27.895Z,2.83
2018-06-20T21:12:56.120Z,2.60
2018-06-20T21:15:24.324Z,2.87
2018-06-20T21:17:52.570Z,2.65
2018-06-20T21:20:20.775Z,2.90
2018-06-20T21:22:49.023Z,3.00
2018-06-20T21:25:17.270Z,2.67
2018-06-20T21:27:45.283Z,2.60
2018-06-20T21:30:13.515Z,2.60
2018-06-20T21:32:41.742Z,2.77
2018-06-20T21:35:09.999Z,2.70
2018-06-20T21:37:38.216Z,2.70
2018-06-20T21:40:09.826Z,2.80
2018-06-20T21:42:38.114Z,2.80
2018-06-20T21:45:06.229Z,2.42
2018-06-20T21:47:34.961Z,2.60
2018-06-20T21:50:03.103Z,2.90
2018-06-20T21:52:31.331Z,2.47
2018-06-20T21:54:59.518Z,2.67
2018-06-20T21:57:27.612Z,2.75
2018-06-20T21:59:55.841Z,2.50
2018-06-20T22:02:24.892Z,2.87
2018-06-20T22:04:53.260Z,2.65
2018-06-20T22:07:21.490Z,3.25
2018-06-20T22:09:49.740Z,3.02
2018-06-20T22:12:18.048Z,2.98
2018-06-20T22:14:46.264Z,2.90
2018-06-20T22:17:14.474Z,4.05
2018-06-20T22:19:42.737Z,3.90
2018-06-20T22:22:10.736Z,3.72
2018-06-20T22:24:38.955Z,3.20
2018-06-20T22:27:07.182Z,3.50
2018-06-20T22:29:36.353Z,3.35
2018-06-20T22:32:04.626Z,3.40
2018-06-20T22:34:32.811Z,3.80
2018-06-20T22:37:00.842Z,3.70
2018-06-20T22:39:29.044Z,3.40
2018-06-20T22:41:57.233Z,3.70
2018-06-20T22:44:25.474Z,3.85
2018-06-20T22:46:53.899Z,3.90
2018-06-20T22:49:22.136Z,3.55
2018-06-20T22:51:50.419Z,3.62
2018-06-20T22:54:18.619Z,3.80
2018-06-20T22:56:46.812Z,3.58
2018-06-20T22:59:15.060Z,3.87
2018-06-20T23:01:43.376Z,3.75
2018-06-20T23:04:11.616Z,3.50
2018-06-20T23:06:39.803Z,3.52
2018-06-20T23:09:09.278Z,3.27
2018-06-20T23:11:46.534Z,3.50
2018-06-20T23:14:14.987Z,3.22
2018-06-20T23:16:43.536Z,3.10
2018-06-20T23:19:11.931Z,3.35
2018-06-20T23:21:40.734Z,3.40
2018-06-20T23:24:09.041Z,3.62
2018-06-20T23:26:37.339Z,3.65
2018-06-20T23:29:05.545Z,3.67
2018-06-20T23:31:33.830Z,3.25
2018-06-20T23:34:01.799Z,3.37
2018-06-20T23:36:29.754Z,3.72
2018-06-20T23:38:57.981Z,3.15
2018-06-20T23:41:26.176Z,3.10
2018-06-20T23:43:54.379Z,3.20
2018-06-20T23:46:22.572Z,3.37
2018-06-20T23:48:50.775Z,3.37
2018-06-20T23:51:19.015Z,3.55
2018-06-20T23:53:47.231Z,3.60
2018-06-20T23:56:15.166Z,3.55
2018-06-20T23:58:43.367Z,2.90
